Time;durP1;ratioP1;P1;durP2;ratioP2;P2;SDS_P1;SDS_P2;PMS_P1;PMS_P2;Temp;Humidity;BMP_temperature;BMP_pressure;BME280_temperature;BME280_humidity;BME280_pressure;Samples;Min_cycle;Max_cycle;Signal;HPM_P1;HPM_P2
2023/05/12 00:00:27;;;;;;;4.57;4.17;;;;;;;11.56;100.00;97813.78;5095220;28;20214;-78
2023/05/12 00:02:53;;;;;;;4.50;4.10;;;;;;;11.56;100.00;97805.81;5094796;28;20259;-78
2023/05/12 00:05:20;;;;;;;5.77;4.53;;;;;;;11.55;100.00;97806.03;5094552;28;20226;-78
2023/05/12 00:07:46;;;;;;;5.43;4.47;;;;;;;11.52;100.00;97801.19;5094693;28;20205;-78
2023/05/12 00:10:14;;;;;;;5.93;5.33;;;;;;;11.55;100.00;97806.84;5095397;28;20204;-78
2023/05/12 00:12:41;;;;;;;5.83;5.33;;;;;;;11.59;100.00;97800.03;5094987;28;20229;-78
2023/05/12 00:15:08;;;;;;;5.63;5.00;;;;;;;11.56;100.00;97794.34;5094883;28;20237;-78
2023/05/12 00:17:34;;;;;;;5.43;4.90;;;;;;;11.57;100.00;97783.47;5095170;28;20200;-78
2023/05/12 00:20:01;;;;;;;5.47;4.97;;;;;;;11.54;100.00;97791.94;5095424;28;20210;-78
2023/05/12 00:22:27;;;;;;;6.50;6.00;;;;;;;11.56;100.00;97787.16;5094453;28;20725;-78
2023/05/12 00:24:54;;;;;;;6.00;5.50;;;;;;;11.57;100.00;97780.00;5094907;28;20205;-78
2023/05/12 00:27:20;;;;;;;5.87;5.37;;;;;;;11.54;100.00;97786.59;5094646;28;20291;-78
2023/05/12 00:29:46;;;;;;;5.33;4.93;;;;;;;11.50;100.00;97785.44;5094574;28;20581;-78
2023/05/12 00:32:13;;;;;;;5.53;5.13;;;;;;;11.51;100.00;97786.22;5094650;28;20201;-78
2023/05/12 00:34:39;;;;;;;6.77;6.17;;;;;;;11.59;100.00;97789.38;5094452;28;20214;-78
2023/05/12 00:37:06;;;;;;;6.67;6.17;;;;;;;11.55;100.00;97782.06;5094375;28;20220;-78
2023/05/12 00:39:32;;;;;;;6.43;5.83;;;;;;;11.57;100.00;97786.13;5094485;28;20618;-78
2023/05/12 00:41:59;;;;;;;6.73;6.23;;;;;;;11.56;100.00;97787.16;5094441;28;20577;-78
2023/05/12 00:44:25;;;;;;;6.00;5.50;;;;;;;11.59;100.00;97786.72;5094510;28;20200;-78
2023/05/12 00:46:53;;;;;;;7.10;6.43;;;;;;;11.57;100.00;97786.13;5094239;28;20729;-78
2023/05/12 00:49:20;;;;;;;7.47;6.87;;;;;;;11.54;100.00;97780.44;5094674;28;20259;-78
2023/05/12 00:51:46;;;;;;;7.80;7.10;;;;;;;11.48;100.00;97790.16;5094520;28;20577;-78
2023/05/12 00:54:13;;;;;;;9.10;8.20;;;;;;;11.55;100.00;97785.56;5094462;28;20231;-78
2023/05/12 00:56:40;;;;;;;10.10;9.20;;;;;;;11.54;100.00;97791.09;5094820;28;20230;-78
2023/05/12 00:59:06;;;;;;;10.07;9.17;;;;;;;11.50;100.00;97781.94;5094923;28;20227;-78
2023/05/12 01:01:33;;;;;;;10.63;9.63;;;;;;;11.45;100.00;97779.19;5094213;28;20209;-78
2023/05/12 01:04:02;;;;;;;10.77;9.80;;;;;;;11.54;100.00;97781.28;5098562;28;20229;-78
2023/05/12 01:06:35;;;;;;;10.60;9.67;;;;;;;11.54;100.00;97786.59;5098273;28;20702;-78
2023/05/12 01:09:01;;;;;;;10.37;9.37;;;;;;;11.47;100.00;97785.06;5098149;28;20283;-78
2023/05/12 01:11:28;;;;;;;10.40;9.50;;;;;;;11.39;100.00;97786.22;5098321;28;20208;-78
2023/05/12 01:13:54;;;;;;;10.43;9.53;;;;;;;11.40;100.00;97790.50;5098273;28;20231;-78
2023/05/12 01:16:26;;;;;;;11.00;9.57;;;;;;;11.44;100.00;97785.56;5098024;28;20228;-78
2023/05/12 01:18:55;;;;;;;10.77;9.87;;;;;;;11.44;100.00;97780.22;5098855;28;20192;-78
2023/05/12 01:21:22;;;;;;;9.70;8.87;;;;;;;11.43;100.00;97773.28;5098648;28;20212;-78
2023/05/12 01:24:01;;;;;;;10.23;9.43;;;;;;;11.41;100.00;97776.19;5098520;28;20235;-78
2023/05/12 01:26:28;;;;;;;10.43;9.63;;;;;;;11.39;100.00;97775.59;5098098;28;20231;-78
2023/05/12 01:28:55;;;;;;;10.00;9.20;;;;;;;11.42;100.00;97780.44;5079531;28;20259;-78
2023/05/12 01:31:22;;;;;;;9.40;8.60;;;;;;;11.48;100.00;97782.19;5097121;28;20204;-78
2023/05/12 01:33:49;;;;;;;9.70;8.97;;;;;;;11.47;100.00;97777.09;5097208;28;20220;-78
2023/05/12 01:36:15;;;;;;;9.30;8.33;;;;;;;11.51;100.00;97787.06;5097352;28;20224;-78
2023/05/12 01:38:41;;;;;;;8.40;7.77;;;;;;;11.55;100.00;97774.91;5097433;28;20210;-78
2023/05/12 01:41:08;;;;;;;8.57;7.77;;;;;;;11.48;100.00;97782.19;5097466;28;20740;-78
2023/05/12 01:43:34;;;;;;;9.23;8.43;;;;;;;11.49;100.00;97777.69;5097218;28;20203;-78
2023/05/12 01:46:01;;;;;;;8.97;8.03;;;;;;;11.43;100.00;97779.41;5097097;28;20225;-78
2023/05/12 01:48:27;;;;;;;9.10;8.23;;;;;;;11.44;100.00;97781.03;5097246;28;20301;-78
2023/05/12 01:50:53;;;;;;;9.33;8.53;;;;;;;11.40;100.00;97779.84;5097221;28;20567;-78
2023/05/12 01:53:20;;;;;;;7.90;7.20;;;;;;;11.47;100.00;97782.41;5097022;28;20223;-78
2023/05/12 01:55:46;;;;;;;9.37;8.40;;;;;;;11.51;100.00;97784.41;5096952;28;20324;-78
2023/05/12 01:58:13;;;;;;;11.20;10.20;;;;;;;11.48;100.00;97781.38;5097334;28;20216;-78
2023/05/12 02:00:39;;;;;;;11.50;10.37;;;;;;;11.35;100.00;97785.06;5097085;28;20208;-78
2023/05/12 02:03:06;;;;;;;11.57;10.57;;;;;;;11.31;100.00;97791.09;5097118;28;20200;-78
2023/05/12 02:05:32;;;;;;;12.00;10.90;;;;;;;11.27;100.00;97784.59;5097070;28;20267;-78
2023/05/12 02:07:59;;;;;;;12.47;11.37;;;;;;;11.30;100.00;97782.28;5097202;28;20189;-78
2023/05/12 02:10:25;;;;;;;12.83;11.73;;;;;;;11.32;100.00;97788.19;5096891;28;20208;-78
2023/05/12 02:12:51;;;;;;;13.47;12.37;;;;;;;11.25;100.00;97779.50;5096752;28;20683;-78
2023/05/12 02:15:18;;;;;;;13.27;12.07;;;;;;;11.25;100.00;97776.06;5095792;28;20229;-78
2023/05/12 02:17:44;;;;;;;14.27;13.07;;;;;;;11.22;100.00;97782.66;5097007;28;20202;-78
2023/05/12 02:20:11;;;;;;;13.80;12.50;;;;;;;11.25;100.00;97779.50;5097034;28;20204;-78
2023/05/12 02:22:38;;;;;;;12.57;11.40;;;;;;;11.26;100.00;97781.13;5096621;28;20213;-78
2023/05/12 02:25:05;;;;;;;12.67;11.60;;;;;;;11.26;100.00;97781.13;5096495;28;20214;-78
2023/05/12 02:27:31;;;;;;;12.80;11.70;;;;;;;11.22;100.00;97773.84;5096256;28;20666;-78
2023/05/12 02:29:57;;;;;;;12.07;10.97;;;;;;;11.20;100.00;97776.72;5095973;28;20701;-78
2023/05/12 02:32:26;;;;;;;12.50;11.40;;;;;;;11.27;100.00;97780.91;5098243;28;20540;-78
2023/05/12 02:34:53;;;;;;;13.77;12.57;;;;;;;11.25;100.00;97778.72;5096472;28;20277;-78
2023/05/12 02:37:19;;;;;;;12.43;11.33;;;;;;;11.32;100.00;97782.88;5096136;28;20205;-78
2023/05/12 02:39:46;;;;;;;13.73;12.50;;;;;;;11.18;100.00;97782.28;5096249;28;20200;-78
2023/05/12 02:42:12;;;;;;;14.80;13.27;;;;;;;11.14;100.00;97769.66;5096165;28;20200;-78
2023/05/12 02:44:38;;;;;;;14.73;13.33;;;;;;;11.18;100.00;97776.16;5096605;28;20235;-78
2023/05/12 02:47:05;;;;;;;14.67;13.27;;;;;;;11.12;100.00;97769.06;5096364;28;20227;-78
2023/05/12 02:49:31;;;;;;;14.27;12.83;;;;;;;11.05;100.00;97771.03;5096289;28;20208;-78
2023/05/12 02:51:58;;;;;;;14.60;13.30;;;;;;;11.04;100.00;97772.88;5096011;28;20208;-78
2023/05/12 02:54:24;;;;;;;13.50;12.27;;;;;;;11.05;100.00;97769.16;5096327;28;20234;-78
2023/05/12 02:56:50;;;;;;;13.70;12.50;;;;;;;11.09;100.00;97772.22;5095666;28;20798;-78
2023/05/12 02:59:17;;;;;;;14.30;13.00;;;;;;;11.03;100.00;97770.44;5096037;28;20671;-78
2023/05/12 03:01:43;;;;;;;13.57;12.37;;;;;;;10.94;100.00;97779.78;5095707;28;20287;-78
2023/05/12 03:04:10;;;;;;;13.83;12.53;;;;;;;10.94;100.00;97774.47;5095921;28;20204;-78
2023/05/12 03:06:36;;;;;;;12.17;11.07;;;;;;;11.00;100.00;97778.91;5095789;28;20644;-78
2023/05/12 03:09:02;;;;;;;13.30;12.20;;;;;;;11.01;100.00;97775.19;5096072;28;20203;-78
2023/05/12 03:11:29;;;;;;;11.70;10.70;;;;;;;10.99;100.00;97779.91;5095369;28;20210;-78
2023/05/12 03:13:55;;;;;;;12.40;11.37;;;;;;;10.99;100.00;97779.91;5095664;28;20236;-78
2023/05/12 03:16:21;;;;;;;12.20;11.00;;;;;;;11.00;100.00;97781.56;5095778;28;20224;-78
2023/05/12 03:18:48;;;;;;;12.20;11.10;;;;;;;10.95;100.00;97782.22;5095893;28;20207;-78
2023/05/12 03:21:14;;;;;;;11.70;10.70;;;;;;;10.94;100.00;97774.47;5095605;28;20216;-78
2023/05/12 03:23:41;;;;;;;10.43;9.53;;;;;;;10.95;100.00;97778.78;5095578;28;20200;-78
2023/05/12 03:26:26;;;;;;;11.23;10.17;;;;;;;11.03;100.00;97781.91;5094781;28;20708;-78
2023/05/12 03:29:00;;;;;;;12.07;10.87;;;;;;;10.94;100.00;97775.28;5094693;28;20279;-78
2023/05/12 03:31:27;;;;;;;11.23;10.23;;;;;;;10.93;100.00;97781.66;5095399;28;20237;-78
2023/05/12 03:33:53;;;;;;;11.03;10.03;;;;;;;10.92;100.00;97779.22;5094837;28;20690;-78
2023/05/12 03:36:19;;;;;;;10.50;9.63;;;;;;;10.95;100.00;97776.13;5094932;28;20262;-78
2023/05/12 03:38:46;;;;;;;10.90;9.90;;;;;;;10.90;100.00;97779.44;5095062;28;20200;-78
2023/05/12 03:41:12;;;;;;;11.30;10.10;;;;;;;10.91;100.00;97780.25;5094983;28;20204;-78
2023/05/12 03:43:39;;;;;;;11.57;10.47;;;;;;;10.91;100.00;97781.06;5095581;28;20295;-78
2023/05/12 03:46:05;;;;;;;11.83;10.63;;;;;;;10.90;100.00;97778.63;5094530;28;20785;-78
2023/05/12 03:48:32;;;;;;;11.20;10.10;;;;;;;10.98;100.00;97780.16;5094612;28;20555;-78
2023/05/12 03:50:58;;;;;;;11.77;10.67;;;;;;;10.93;100.00;97778.16;5095180;28;20237;-78
2023/05/12 03:53:24;;;;;;;12.13;11.03;;;;;;;10.86;100.00;97772.16;5095262;28;20224;-78
2023/05/12 03:55:51;;;;;;;12.43;10.60;;;;;;;10.95;100.00;97776.91;5094498;28;20224;-78
2023/05/12 03:58:17;;;;;;;12.80;11.60;;;;;;;10.97;100.00;97766.03;5094746;28;20666;-78
2023/05/12 04:00:44;;;;;;;14.10;12.80;;;;;;;10.95;100.00;97768.13;5094718;28;20690;-78
2023/05/12 04:03:10;;;;;;;14.10;12.63;;;;;;;10.79;100.00;97774.09;5094168;28;20685;-78
2023/05/12 04:05:38;;;;;;;14.23;12.93;;;;;;;10.79;100.00;97766.09;5094292;28;20715;-78
2023/05/12 04:08:05;;;;;;;15.10;13.63;;;;;;;10.72;100.00;97766.19;5094639;28;20215;-78
2023/05/12 04:10:31;;;;;;;14.37;12.90;;;;;;;10.81;100.00;97770.16;5094754;28;20210;-78
2023/05/12 04:12:57;;;;;;;13.53;12.23;;;;;;;10.95;100.00;97768.94;5094645;28;20203;-78
2023/05/12 04:15:24;;;;;;;13.53;12.37;;;;;;;10.86;100.00;97766.84;5095636;28;20234;-78
2023/05/12 04:17:50;;;;;;;14.70;13.37;;;;;;;10.83;100.00;97762.78;5095368;28;20204;-78
2023/05/12 04:20:17;;;;;;;13.10;11.90;;;;;;;10.99;100.00;97767.44;5094916;28;20207;-78
2023/05/12 04:22:44;;;;;;;13.60;12.30;;;;;;;10.99;100.00;97767.44;5095038;28;20204;-78
2023/05/12 04:25:10;;;;;;;13.07;11.87;;;;;;;10.99;100.00;97771.94;5095350;28;20196;-78
2023/05/12 04:27:36;;;;;;;13.13;11.97;;;;;;;10.90;100.00;97771.47;5095249;28;20214;-78
2023/05/12 04:30:03;;;;;;;13.23;11.97;;;;;;;10.83;100.00;97781.41;5094959;28;20200;-78
2023/05/12 04:32:29;;;;;;;13.80;12.60;;;;;;;10.83;100.00;97783.25;5095551;28;20570;-78
2023/05/12 04:34:55;;;;;;;15.57;11.90;;;;;;;10.79;100.00;97784.72;5095106;28;20225;-78
2023/05/12 04:37:22;;;;;;;12.83;11.63;;;;;;;10.79;100.00;97787.38;5096329;28;20240;-78
2023/05/12 04:39:48;;;;;;;13.03;11.83;;;;;;;10.82;100.00;97789.59;5099314;28;20212;-78
2023/05/12 04:42:15;;;;;;;14.13;12.73;;;;;;;10.83;100.00;97785.91;5098463;28;20204;-78
2023/05/12 04:44:41;;;;;;;13.57;12.23;;;;;;;10.86;100.00;97782.78;5098645;28;20208;-78
2023/05/12 04:47:07;;;;;;;13.00;11.67;;;;;;;10.86;100.00;97780.13;5098627;28;20231;-78
2023/05/12 04:49:34;;;;;;;13.97;12.67;;;;;;;10.78;100.00;97785.78;5097852;28;20208;-78
2023/05/12 04:52:00;;;;;;;13.93;12.57;;;;;;;10.91;100.00;97790.91;5098212;28;20670;-78
2023/05/12 04:54:26;;;;;;;13.47;12.27;;;;;;;10.92;100.00;97789.84;5098105;28;20591;-78
2023/05/12 04:56:53;;;;;;;13.43;12.13;;;;;;;10.97;100.00;97795.31;5098496;28;20227;-78
2023/05/12 04:59:19;;;;;;;13.80;12.40;;;;;;;11.05;100.00;97808.28;5099276;28;20213;-78
2023/05/12 05:01:45;;;;;;;13.13;11.93;;;;;;;11.00;100.00;97800.97;5097910;28;20212;-78
2023/05/12 05:04:12;;;;;;;13.73;12.43;;;;;;;11.17;100.00;97800.31;5098453;28;20249;-78
2023/05/12 05:06:38;;;;;;;12.90;11.70;;;;;;;11.13;100.00;97808.75;5098765;28;20236;-78
2023/05/12 05:09:05;;;;;;;13.10;11.67;;;;;;;11.16;100.00;97798.72;5098684;28;20205;-78
2023/05/12 05:11:31;;;;;;;12.00;10.90;;;;;;;11.04;100.00;97801.34;5098650;28;20205;-78
2023/05/12 05:13:57;;;;;;;12.07;10.87;;;;;;;11.05;100.00;97797.63;5097697;28;20228;-78
2023/05/12 05:16:24;;;;;;;12.43;11.30;;;;;;;11.09;100.00;97801.47;5098680;28;20224;-78
2023/05/12 05:18:50;;;;;;;14.00;12.27;;;;;;;11.12;100.00;97800.19;5098222;28;20204;-78
2023/05/12 05:21:17;;;;;;;12.13;10.97;;;;;;;11.19;100.00;97799.84;5098688;28;20300;-78
2023/05/12 05:23:43;;;;;;;12.80;11.60;;;;;;;11.34;100.00;97801.28;5098047;28;20209;-78
2023/05/12 05:26:10;;;;;;;13.13;11.83;;;;;;;11.21;100.00;97810.28;5097896;28;20238;-78
2023/05/12 05:28:38;;;;;;;12.20;11.10;;;;;;;11.21;100.00;97806.81;5097200;28;20686;-78
2023/05/12 05:31:05;;;;;;;11.97;10.93;;;;;;;11.20;100.00;97808.66;5097355;28;20205;-78
2023/05/12 05:33:32;;;;;;;13.07;11.77;;;;;;;11.20;100.00;97813.97;5097152;28;20549;-78
2023/05/12 05:35:58;;;;;;;13.83;12.43;;;;;;;11.14;100.00;97817.56;5098159;28;20234;-78
2023/05/12 05:38:25;;;;;;;12.77;11.50;;;;;;;11.14;100.00;97817.56;5097947;28;20204;-78
2023/05/12 05:40:51;;;;;;;12.77;11.47;;;;;;;11.14;100.00;97821.00;5097613;28;20221;-78
2023/05/12 05:43:17;;;;;;;12.47;11.30;;;;;;;11.23;100.00;97818.03;5097894;28;20203;-78
2023/05/12 05:45:44;;;;;;;12.97;11.77;;;;;;;11.29;100.00;97823.25;5096852;28;20652;-74
2023/05/12 05:48:10;;;;;;;12.93;11.70;;;;;;;11.32;100.00;97817.47;5095726;28;20215;-73
2023/05/12 05:50:37;;;;;;;12.70;11.50;;;;;;;11.41;100.00;97820.59;5096086;28;20265;-74
2023/05/12 05:53:03;;;;;;;11.63;10.20;;;;;;;11.37;100.00;97822.91;5095801;28;20206;-74
2023/05/12 05:55:30;;;;;;;11.53;10.37;;;;;;;11.54;100.00;97823.06;5095400;28;20235;-74
2023/05/12 05:57:56;;;;;;;11.20;10.20;;;;;;;11.46;100.00;97818.88;5095932;28;20210;-75
2023/05/12 06:00:22;;;;;;;11.40;10.33;;;;;;;11.50;100.00;97824.53;5095838;28;20597;-74
2023/05/12 06:02:49;;;;;;;11.40;10.40;;;;;;;11.51;100.00;97815.50;5095796;28;20208;-74
2023/05/12 06:05:15;;;;;;;12.13;10.90;;;;;;;11.54;100.00;97829.19;5095322;28;20220;-74
2023/05/12 06:07:42;;;;;;;12.20;11.00;;;;;;;11.51;100.00;97824.31;5095548;28;20192;-74
2023/05/12 06:10:08;;;;;;;12.20;11.00;;;;;;;11.64;100.00;97826.81;5095504;28;20204;-74
2023/05/12 06:12:34;;;;;;;12.40;11.20;;;;;;;11.57;100.00;97823.41;5095504;28;20684;-74
2023/05/12 06:15:01;;;;;;;11.93;10.73;;;;;;;11.67;100.00;97834.31;5095325;28;20668;-74
2023/05/12 06:17:27;;;;;;;10.83;9.80;;;;;;;11.69;100.00;97826.91;5095221;28;20564;-74
2023/05/12 06:19:53;;;;;;;10.60;9.47;;;;;;;11.69;100.00;97836.75;5095880;28;20570;-74
2023/05/12 06:22:20;;;;;;;10.50;9.40;;;;;;;11.68;100.00;97835.13;5095205;28;20673;-74
2023/05/12 06:24:46;;;;;;;10.73;9.73;;;;;;;11.72;100.00;97846.94;5094935;28;20569;-74
2023/05/12 06:27:12;;;;;;;9.17;8.40;;;;;;;11.82;100.00;97841.84;5095187;28;20228;-74
2023/05/12 06:29:39;;;;;;;9.73;8.93;;;;;;;11.69;100.00;97839.41;5095007;28;20206;-74
2023/05/12 06:32:06;;;;;;;9.07;8.27;;;;;;;11.75;100.00;97841.16;5094889;28;20217;-74
2023/05/12 06:34:32;;;;;;;9.67;8.77;;;;;;;11.98;100.00;97846.50;5095232;28;20251;-74
2023/05/12 06:36:59;;;;;;;8.93;8.03;;;;;;;11.82;100.00;97845.34;5094922;28;20225;-74
2023/05/12 06:39:25;;;;;;;10.10;9.20;;;;;;;11.79;100.00;97848.44;5095596;28;20204;-78
2023/05/12 06:41:51;;;;;;;11.37;9.40;;;;;;;11.86;100.00;97845.66;5095780;28;20210;-78
2023/05/12 06:44:18;;;;;;;10.20;9.20;;;;;;;11.91;100.00;97841.28;5095666;28;20241;-79
2023/05/12 06:46:44;;;;;;;10.43;9.50;;;;;;;12.01;100.00;97846.00;5094612;28;20225;-77
2023/05/12 06:49:10;;;;;;;9.90;9.10;;;;;;;11.90;100.00;97845.00;5093305;28;20571;-77
2023/05/12 06:51:37;;;;;;;10.17;9.17;;;;;;;12.11;100.00;97841.72;5093664;28;20203;-76
2023/05/12 06:54:03;;;;;;;10.37;9.13;;;;;;;12.07;100.00;97843.22;5093227;28;20345;-76
2023/05/12 06:56:30;;;;;;;9.00;8.20;;;;;;;12.20;100.00;97844.84;5093147;28;20230;-76
2023/05/12 06:59:01;;;;;;;9.03;8.17;;;;;;;12.13;100.00;97850.31;5092932;28;20740;-77
2023/05/12 07:01:31;;;;;;;8.57;7.87;;;;;;;12.34;100.00;97852.34;5092729;28;20191;-76
2023/05/12 07:03:59;;;;;;;8.37;7.63;;;;;;;12.33;100.00;97855.22;5094055;28;20203;-76
2023/05/12 07:06:27;;;;;;;8.40;7.60;;;;;;;12.23;100.00;97849.69;5094793;28;20239;-77
2023/05/12 07:08:54;;;;;;;8.10;7.47;;;;;;;12.17;100.00;97850.63;5095050;28;20209;-76
2023/05/12 07:11:20;;;;;;;8.90;8.10;;;;;;;12.40;100.00;97845.25;5094789;28;20208;-74
2023/05/12 07:13:47;;;;;;;8.70;7.90;;;;;;;12.54;100.00;97846.63;5094962;28;20257;-76
2023/05/12 07:16:14;;;;;;;8.53;7.73;;;;;;;12.53;100.00;97848.47;5095063;28;20228;-76
2023/05/12 07:18:41;;;;;;;7.37;6.77;;;;;;;12.54;100.00;97846.63;5095379;28;20214;-77
2023/05/12 07:21:08;;;;;;;7.37;6.67;;;;;;;12.58;100.00;97847.78;5095048;28;20204;-77
2023/05/12 07:23:34;;;;;;;7.20;6.60;;;;;;;12.62;100.00;97847.03;5076749;28;20231;-77
2023/05/12 07:26:02;;;;;;;7.93;7.10;;;;;;;12.84;100.00;97848.03;5094684;28;20330;-77
2023/05/12 07:28:31;;;;;;;7.67;7.00;;;;;;;12.82;100.00;97844.78;5093699;28;20678;-77
2023/05/12 07:30:58;;;;;;;7.50;6.83;;;;;;;12.97;100.00;97850.44;5094485;28;20570;-76
2023/05/12 07:33:25;;;;;;;7.30;6.70;;;;;;;13.19;100.00;97845.22;5095044;28;20575;-77
2023/05/12 07:35:51;;;;;;;7.20;6.00;;;;;;;13.02;100.00;97852.41;5093863;28;20723;-77
2023/05/12 07:38:17;;;;;;;5.10;4.70;;;;;;;12.88;100.00;97843.84;5094447;28;20208;-77
2023/05/12 07:40:44;;;;;;;6.57;6.07;;;;;;;12.85;100.00;97848.84;5094432;28;20200;-77
2023/05/12 07:43:11;;;;;;;5.97;5.47;;;;;;;13.08;100.00;97844.25;5094360;28;20261;-77
2023/05/12 07:45:37;;;;;;;6.47;4.87;;;;;;;13.15;100.00;97846.78;5094417;28;20231;-77
2023/05/12 07:48:04;;;;;;;5.47;5.07;;;;;;;12.96;100.00;97854.13;5094513;28;20200;-77
2023/05/12 07:50:30;;;;;;;4.63;4.27;;;;;;;13.23;100.00;97849.03;5094634;28;20599;-76
2023/05/12 07:52:57;;;;;;;5.10;4.70;;;;;;;13.18;100.00;97844.44;5094321;28;20204;-77
2023/05/12 07:55:24;;;;;;;5.57;5.13;;;;;;;13.00;100.00;97841.16;5094146;28;20228;-77
2023/05/12 07:57:50;;;;;;;5.40;5.00;;;;;;;13.17;100.00;97842.00;5094301;28;20298;-73
2023/05/12 08:00:17;;;;;;;5.27;4.63;;;;;;;13.36;100.00;97843.38;5094070;28;20200;-74
2023/05/12 08:02:44;;;;;;;4.80;4.40;;;;;;;13.12;100.00;97845.38;5094334;28;20204;-73
2023/05/12 08:05:11;;;;;;;4.33;4.03;;;;;;;13.24;100.00;97843.47;5094348;28;20234;-73
2023/05/12 08:07:38;;;;;;;5.87;4.30;;;;;;;13.26;100.00;97846.72;5093917;28;20188;-73
2023/05/12 08:10:06;;;;;;;4.90;4.50;;;;;;;13.42;100.00;97839.75;5075498;28;20204;-73
2023/05/12 08:12:33;;;;;;;4.07;3.67;;;;;;;13.33;100.00;97852.69;5093816;28;20302;-74
2023/05/12 08:15:00;;;;;;;3.30;3.00;;;;;;;13.84;100.00;97849.00;5093828;28;20236;-73
2023/05/12 08:17:26;;;;;;;3.93;3.10;;;;;;;14.21;100.00;97850.91;5094229;28;20210;-73
2023/05/12 08:19:52;;;;;;;3.97;3.67;;;;;;;14.54;100.00;97839.28;5096194;28;20773;-74
2023/05/12 08:22:19;;;;;;;3.63;3.33;;;;;;;14.44;100.00;97842.66;5093927;28;20200;-74
2023/05/12 08:24:46;;;;;;;4.03;3.63;;;;;;;14.35;100.00;97840.66;5093597;28;20686;-74
2023/05/12 08:27:12;;;;;;;4.13;3.83;;;;;;;14.49;100.00;97842.72;5093763;28;20223;-74
2023/05/12 08:29:39;;;;;;;3.70;3.50;;;;;;;14.76;100.00;97843.59;5093599;28;20204;-74
2023/05/12 08:32:05;;;;;;;3.80;3.50;;;;;;;14.78;100.00;97843.31;5093294;28;20235;-73
2023/05/12 08:34:32;;;;;;;4.87;4.13;;;;;;;13.61;100.00;97839.28;5093583;28;20239;-74
2023/05/12 08:36:58;;;;;;;4.40;4.00;;;;;;;13.85;100.00;97839.91;5093327;28;20224;-74
2023/05/12 08:39:29;;;;;;;4.07;3.77;;;;;;;13.80;100.00;97837.16;5093477;28;20204;-74
2023/05/12 08:42:22;;;;;;;4.97;3.73;;;;;;;14.01;100.00;97844.41;5093118;28;20275;-74
2023/05/12 08:44:49;;;;;;;2.73;2.53;;;;;;;14.50;100.00;97840.84;5093832;28;20262;-74
2023/05/12 08:47:18;;;;;;;3.80;3.07;;;;;;;14.60;100.00;97835.63;5093409;28;20228;-74
2023/05/12 08:49:45;;;;;;;3.33;3.13;;;;;;;14.72;100.00;97847.00;5076134;28;20232;-74
2023/05/12 08:52:12;;;;;;;2.90;2.70;;;;;;;14.66;100.00;97848.00;5094100;28;20211;-75
2023/05/12 08:54:39;;;;;;;2.23;2.13;;;;;;;14.46;100.00;97847.75;5094130;28;20224;-75
2023/05/12 08:57:06;;;;;;;2.80;2.60;;;;;;;14.48;100.00;97845.66;5094059;28;20251;-75
2023/05/12 08:59:32;;;;;;;3.23;3.03;;;;;;;14.41;100.00;97848.50;5093759;28;20663;-75
2023/05/12 09:02:01;;;;;;;3.10;2.80;;;;;;;14.41;100.00;97845.00;5093449;28;20561;-75
2023/05/12 09:04:27;;;;;;;2.90;2.70;;;;;;;14.41;100.00;97855.69;5093550;28;20200;-75
2023/05/12 09:06:53;;;;;;;2.80;2.60;;;;;;;14.52;100.00;97857.47;5093369;28;20246;-75
2023/05/12 09:09:20;;;;;;;2.73;2.60;;;;;;;14.73;100.00;97846.75;5093309;28;20204;-75
2023/05/12 09:11:49;;;;;;;3.27;3.07;;;;;;;15.14;100.00;97850.66;5095797;28;20661;-74
2023/05/12 09:14:24;;;;;;;3.47;3.20;;;;;;;15.28;100.00;97850.03;5103327;28;20203;-74
2023/05/12 09:17:03;;;;;;;3.07;2.87;;;;;;;14.92;100.00;97858.75;5102473;28;20211;-74
2023/05/12 09:19:30;;;;;;;3.33;3.13;;;;;;;14.86;100.00;97848.22;5102998;28;20187;-75
2023/05/12 09:21:57;;;;;;;3.83;3.53;;;;;;;14.78;100.00;97849.50;5093589;28;20200;-75
2023/05/12 09:24:40;;;;;;;3.93;3.63;;;;;;;14.47;100.00;97850.19;5114932;28;20210;-75
2023/05/12 09:27:06;;;;;;;4.23;3.93;;;;;;;14.52;100.00;97852.13;5108878;28;20223;-76
2023/05/12 09:29:33;;;;;;;3.73;3.43;;;;;;;14.59;100.00;97852.72;5106162;28;20669;-76
2023/05/12 09:32:02;;;;;;;3.60;3.40;;;;;;;14.56;100.00;97854.03;5106180;28;20210;-75
2023/05/12 09:34:37;;;;;;;3.70;3.40;;;;;;;14.82;100.00;97855.97;5102275;28;20297;-74
2023/05/12 09:37:05;;;;;;;3.70;3.50;;;;;;;14.71;100.00;97842.72;5097007;28;20278;-74
2023/05/12 09:39:32;;;;;;;3.10;2.90;;;;;;;14.57;100.00;97854.84;5097509;28;20207;-74
2023/05/12 09:41:58;;;;;;;3.17;2.97;;;;;;;14.62;100.00;97842.34;5097266;28;20547;-74
2023/05/12 09:44:27;;;;;;;4.70;3.00;;;;;;;14.60;100.00;97847.13;5097438;28;20681;-74
2023/05/12 09:46:54;;;;;;;3.87;3.30;;;;;;;14.62;100.00;97847.72;5097743;28;20569;-74
2023/05/12 09:49:23;;;;;;;3.17;2.93;;;;;;;14.83;100.00;97844.19;5097182;28;20204;-74
2023/05/12 09:51:57;;;;;;;2.93;2.73;;;;;;;14.71;100.00;97848.06;5102206;28;20549;-75
2023/05/12 09:54:28;;;;;;;3.20;3.00;;;;;;;15.13;100.00;97854.41;5105362;28;20274;-74
2023/05/12 09:56:59;;;;;;;2.80;2.60;;;;;;;15.38;100.00;97846.66;5107974;28;20223;-74
2023/05/12 09:59:31;;;;;;;3.07;2.87;;;;;;;15.24;100.00;97861.50;5104321;28;20188;-75
2023/05/12 10:02:00;;;;;;;2.80;2.60;;;;;;;15.22;100.00;97852.91;5103833;28;20204;-74
2023/05/12 10:04:29;;;;;;;2.70;2.40;;;;;;;15.12;100.00;97842.91;5098034;28;20204;-75
2023/05/12 10:06:58;;;;;;;2.70;2.50;;;;;;;14.94;100.00;97851.28;5097263;28;20227;-74
2023/05/12 10:09:35;;;;;;;3.00;2.80;;;;;;;14.69;100.00;97845.63;5096727;28;20203;-75
2023/05/12 10:12:05;;;;;;;2.53;2.33;;;;;;;14.62;100.00;97852.25;5096311;28;20222;-74
2023/05/12 10:14:31;;;;;;;2.37;2.27;;;;;;;14.66;100.00;97856.81;5094222;28;20307;-74
2023/05/12 10:16:59;;;;;;;3.87;2.50;;;;;;;14.43;100.00;97853.59;5094909;28;20238;-74
2023/05/12 10:19:26;;;;;;;2.33;2.20;;;;;;;14.48;100.00;97849.13;5095668;28;20252;-74
2023/05/12 10:21:54;;;;;;;2.67;2.47;;;;;;;14.51;100.00;97850.50;5096173;28;20200;-74
2023/05/12 10:24:21;;;;;;;3.90;3.30;;;;;;;14.47;100.00;97849.38;5095813;28;20200;-74
2023/05/12 10:26:48;;;;;;;3.00;2.70;;;;;;;14.46;100.00;97845.06;5095690;28;20539;-74
2023/05/12 10:29:15;;;;;;;3.57;2.93;;;;;;;14.52;100.00;97858.25;5095426;28;20659;-74
2023/05/12 10:31:45;;;;;;;2.60;2.40;;;;;;;14.53;100.00;97851.88;5095730;28;20200;-74
2023/05/12 10:34:17;;;;;;;3.03;2.83;;;;;;;14.64;100.00;97856.28;5095003;28;20635;-74
2023/05/12 10:36:46;;;;;;;3.20;3.00;;;;;;;14.72;100.00;97850.50;5095044;28;20231;-74
2023/05/12 10:39:15;;;;;;;3.37;3.17;;;;;;;15.03;100.00;97857.81;5095241;28;20581;-74
2023/05/12 10:41:41;;;;;;;3.67;3.37;;;;;;;15.10;100.00;97853.06;5095520;28;20203;-74
2023/05/12 10:44:09;;;;;;;3.97;3.50;;;;;;;15.21;100.00;97852.13;5095433;28;20204;-74
2023/05/12 10:46:36;;;;;;;8.90;4.33;;;;;;;15.27;100.00;97851.09;5095475;28;20220;-74
2023/05/12 10:49:07;;;;;;;4.03;3.73;;;;;;;15.26;100.00;97849.47;5095109;28;20242;-74
2023/05/12 10:51:46;;;;;;;3.73;3.43;;;;;;;15.30;100.00;97853.28;5095089;28;20188;-74
2023/05/12 10:54:19;;;;;;;3.53;3.23;;;;;;;15.48;100.00;97857.47;5094906;28;20203;-74
2023/05/12 10:56:46;;;;;;;3.73;3.30;;;;;;;15.11;100.00;97857.34;5094858;28;20227;-74
2023/05/12 10:59:23;;;;;;;2.90;2.67;;;;;;;15.18;100.00;97852.59;5094651;28;20303;-75
2023/05/12 11:02:01;;;;;;;2.80;2.60;;;;;;;14.80;100.00;97849.25;5095687;28;20203;-75
2023/05/12 11:04:49;;;;;;;3.27;3.07;;;;;;;14.67;100.00;97850.44;5095174;28;20207;-74
2023/05/12 11:07:22;;;;;;;3.40;3.10;;;;;;;14.69;100.00;97859.00;5094665;28;20228;-74
2023/05/12 11:09:50;;;;;;;3.30;3.00;;;;;;;14.61;100.00;97858.66;5094658;28;20192;-73
2023/05/12 11:12:17;;;;;;;3.67;3.37;;;;;;;14.61;100.00;97862.13;5102429;28;20677;-74
2023/05/12 11:14:44;;;;;;;4.23;3.90;;;;;;;14.68;100.00;97860.09;5115247;28;20207;-74
2023/05/12 11:17:11;;;;;;;9.67;8.70;;;;;;;14.65;100.00;97857.09;5114994;28;20232;-73
2023/05/12 11:19:39;;;;;;;3.23;2.57;;;;;;;14.66;100.00;97869.41;5115254;28;20673;-73